createdAt,value
2023-05-06T00:00:19.282Z,249.20
2023-05-06T00:01:19.303Z,249.28
2023-05-06T00:02:19.390Z,249.13
2023-05-06T00:03:19.513Z,248.26
2023-05-06T00:04:19.420Z,248.01
2023-05-06T00:05:19.387Z,247.56
2023-05-06T00:06:19.396Z,248.07
2023-05-06T00:07:19.428Z,245.33
2023-05-06T00:08:19.433Z,248.43
2023-05-06T00:09:19.474Z,247.91
2023-05-06T00:10:19.491Z,246.18
2023-05-06T00:11:19.636Z,247.85
2023-05-06T00:12:19.622Z,249.02
2023-05-06T00:13:19.660Z,247.20
2023-05-06T00:14:19.560Z,246.32
2023-05-06T00:15:19.596Z,247.98
2023-05-06T00:16:19.594Z,248.71
2023-05-06T00:17:19.603Z,248.13
2023-05-06T00:18:19.674Z,245.38
2023-05-06T00:19:19.652Z,248.66
2023-05-06T00:20:19.699Z,248.52
2023-05-06T00:21:19.685Z,248.10
2023-05-06T00:22:19.729Z,247.71
2023-05-06T00:23:19.740Z,249.10
2023-05-06T00:24:19.758Z,248.54
2023-05-06T00:25:19.778Z,248.36
2023-05-06T00:26:19.803Z,244.34
2023-05-06T00:27:19.817Z,248.52
2023-05-06T00:28:19.912Z,248.61
2023-05-06T00:29:19.828Z,248.81
2023-05-06T00:30:19.877Z,248.99
2023-05-06T00:31:19.874Z,249.03
2023-05-06T00:32:19.836Z,249.43
2023-05-06T00:33:19.884Z,249.10
2023-05-06T00:34:19.864Z,247.89
2023-05-06T00:35:19.839Z,249.31
2023-05-06T00:36:19.832Z,250.00
2023-05-06T00:37:19.836Z,246.73
2023-05-06T00:38:19.857Z,248.77
2023-05-06T00:39:19.865Z,248.59
2023-05-06T00:40:19.857Z,247.98
2023-05-06T00:41:19.856Z,247.80
2023-05-06T00:42:19.860Z,248.91
2023-05-06T00:43:19.862Z,249.27
2023-05-06T00:44:19.994Z,247.49
2023-05-06T00:45:19.877Z,247.35
2023-05-06T00:46:19.986Z,247.15
2023-05-06T00:47:19.887Z,248.66
2023-05-06T00:48:19.972Z,247.60
2023-05-06T00:49:19.888Z,248.63
2023-05-06T00:50:19.893Z,249.02
2023-05-06T00:51:19.903Z,247.55
2023-05-06T00:52:19.917Z,248.27
2023-05-06T00:53:19.918Z,248.57
2023-05-06T00:54:19.939Z,247.53
2023-05-06T00:55:19.908Z,246.94
2023-05-06T00:56:20.861Z,247.80
2023-05-06T00:57:19.969Z,247.67
2023-05-06T00:58:19.977Z,248.17
2023-05-06T00:59:19.984Z,245.09
2023-05-06T01:00:20.058Z,247.82
2023-05-06T01:01:20.089Z,248.78
2023-05-06T01:02:20.187Z,247.84
2023-05-06T01:03:20.243Z,245.23
2023-05-06T01:04:20.114Z,247.90
2023-05-06T01:05:20.218Z,247.59
2023-05-06T01:06:20.182Z,249.67
2023-05-06T01:07:20.177Z,248.37
2023-05-06T01:08:20.203Z,247.56
2023-05-06T01:09:20.235Z,247.82
2023-05-06T01:10:20.277Z,248.12
2023-05-06T01:11:20.336Z,248.87
2023-05-06T01:12:20.353Z,248.48
2023-05-06T01:13:20.551Z,248.53
2023-05-06T01:14:20.417Z,246.65
2023-05-06T01:15:20.547Z,247.74
2023-05-06T01:16:20.585Z,247.66
2023-05-06T01:17:20.476Z,248.12
2023-05-06T01:18:20.527Z,247.89
2023-05-06T01:19:20.545Z,247.97
2023-05-06T01:20:20.569Z,248.67
2023-05-06T01:21:20.601Z,247.99
2023-05-06T01:22:20.643Z,248.06
2023-05-06T01:23:20.687Z,247.23
2023-05-06T01:24:20.713Z,248.11
2023-05-06T01:25:20.746Z,247.45
2023-05-06T01:26:20.758Z,248.76
2023-05-06T01:27:20.784Z,248.37
2023-05-06T01:28:20.836Z,248.49
2023-05-06T01:29:20.851Z,248.30
2023-05-06T01:30:20.897Z,249.57
2023-05-06T01:31:20.992Z,248.54
2023-05-06T01:32:21.179Z,248.31
2023-05-06T01:33:20.979Z,247.00
2023-05-06T01:34:21.001Z,244.59
2023-05-06T01:35:21.031Z,246.95
2023-05-06T01:36:21.064Z,247.73
2023-05-06T01:37:21.105Z,248.81
2023-05-06T01:38:21.139Z,247.67
2023-05-06T01:39:21.157Z,246.95
2023-05-06T01:40:21.191Z,247.01
2023-05-06T01:41:21.232Z,247.06
2023-05-06T01:42:21.283Z,247.81
2023-05-06T01:43:21.352Z,245.75
2023-05-06T01:44:21.355Z,247.79
2023-05-06T01:45:21.372Z,246.29
2023-05-06T01:46:21.413Z,247.68
2023-05-06T01:47:21.435Z,246.16
2023-05-06T01:48:21.504Z,245.71
2023-05-06T01:49:21.527Z,246.96
2023-05-06T01:50:21.550Z,247.19
2023-05-06T01:51:21.582Z,246.86
2023-05-06T01:52:21.622Z,246.37
2023-05-06T01:53:21.654Z,247.33
2023-05-06T01:54:21.692Z,247.49
2023-05-06T01:55:21.727Z,246.48
2023-05-06T01:56:21.813Z,245.79
2023-05-06T01:57:21.795Z,246.45
2023-05-06T01:58:21.858Z,245.44
2023-05-06T01:59:21.896Z,246.20
2023-05-06T02:00:21.911Z,246.27
2023-05-06T02:01:21.933Z,246.32
2023-05-06T02:02:22.011Z,246.36
2023-05-06T02:03:22.073Z,246.52
2023-05-06T02:04:21.999Z,246.37
2023-05-06T02:05:21.939Z,245.99
2023-05-06T02:06:21.942Z,246.75
2023-05-06T02:07:21.937Z,245.72
2023-05-06T02:08:21.948Z,246.67
2023-05-06T02:09:21.938Z,246.13
2023-05-06T02:10:21.965Z,246.31
2023-05-06T02:11:21.960Z,246.35
2023-05-06T02:12:21.981Z,246.03
2023-05-06T02:13:22.022Z,246.53
2023-05-06T02:14:21.988Z,245.11
2023-05-06T02:15:21.992Z,244.33
2023-05-06T02:16:22.090Z,243.52
2023-05-06T02:17:22.027Z,244.24
2023-05-06T02:18:22.013Z,244.59
2023-05-06T02:19:22.004Z,244.21
2023-05-06T02:20:22.004Z,245.18
2023-05-06T02:21:22.006Z,245.23
2023-05-06T02:22:22.014Z,245.16
2023-05-06T02:23:22.033Z,244.62
2023-05-06T02:24:22.044Z,244.81
2023-05-06T02:25:22.041Z,243.80
2023-05-06T02:26:22.046Z,243.87
2023-05-06T02:27:22.054Z,245.44
2023-05-06T02:28:22.056Z,243.92
2023-05-06T02:29:22.068Z,244.68
2023-05-06T02:30:22.093Z,242.69
2023-05-06T02:31:22.180Z,243.53
2023-05-06T02:32:22.105Z,241.28
2023-05-06T02:33:22.097Z,243.87
2023-05-06T02:34:22.107Z,241.50
2023-05-06T02:35:22.102Z,243.16
2023-05-06T02:36:22.292Z,242.65
2023-05-06T02:37:22.107Z,241.90
2023-05-06T02:38:22.132Z,243.18
2023-05-06T02:39:22.125Z,242.20
2023-05-06T02:40:22.182Z,241.64
2023-05-06T02:41:22.204Z,240.95
2023-05-06T02:42:22.288Z,242.75
2023-05-06T02:43:22.287Z,241.64
2023-05-06T02:44:22.338Z,240.31
2023-05-06T02:45:22.392Z,242.33
2023-05-06T02:46:22.580Z,243.93
2023-05-06T02:47:22.510Z,242.83
2023-05-06T02:48:22.496Z,242.82
2023-05-06T02:49:22.548Z,241.98
2023-05-06T02:50:22.588Z,243.23
2023-05-06T02:51:22.648Z,243.40
2023-05-06T02:52:22.920Z,242.31
2023-05-06T02:53:22.731Z,242.18
2023-05-06T02:54:22.774Z,243.31
2023-05-06T02:55:22.771Z,243.41
2023-05-06T02:56:22.801Z,243.56
2023-05-06T02:57:22.789Z,243.97
2023-05-06T02:58:22.815Z,242.32
2023-05-06T02:59:22.785Z,243.79
2023-05-06T03:00:22.820Z,242.79
2023-05-06T03:01:22.866Z,242.21
2023-05-06T03:02:22.858Z,243.00
2023-05-06T03:03:22.863Z,243.12
2023-05-06T03:04:22.867Z,243.31
2023-05-06T03:05:22.875Z,242.94
2023-05-06T03:06:22.855Z,244.09
2023-05-06T03:07:22.882Z,242.45
2023-05-06T03:08:22.944Z,242.56
2023-05-06T03:09:22.874Z,242.74
2023-05-06T03:10:22.888Z,242.81
2023-05-06T03:11:22.889Z,243.35
2023-05-06T03:12:22.895Z,243.77
2023-05-06T03:13:22.991Z,242.54
2023-05-06T03:14:22.920Z,242.70
2023-05-06T03:15:22.924Z,242.07
2023-05-06T03:16:22.975Z,242.10
2023-05-06T03:17:22.942Z,241.60
2023-05-06T03:18:22.975Z,242.09
2023-05-06T03:19:22.960Z,241.58
2023-05-06T03:20:22.975Z,242.47
2023-05-06T03:21:23.040Z,241.76
2023-05-06T03:22:23.048Z,240.21
2023-05-06T03:23:23.006Z,241.60
2023-05-06T03:24:23.185Z,241.87
2023-05-06T03:25:23.101Z,241.38
2023-05-06T03:26:23.122Z,241.48
2023-05-06T03:27:23.119Z,241.47
2023-05-06T03:28:23.122Z,241.55
2023-05-06T03:29:23.122Z,241.40
2023-05-06T03:30:23.172Z,242.48
2023-05-06T03:31:23.257Z,240.40
2023-05-06T03:32:23.228Z,240.43
2023-05-06T03:33:23.186Z,241.64
2023-05-06T03:34:23.190Z,240.38
2023-05-06T03:35:23.166Z,240.06
2023-05-06T03:36:23.181Z,239.57
2023-05-06T03:37:23.181Z,241.59
2023-05-06T03:38:23.218Z,240.02
2023-05-06T03:39:23.191Z,242.07
2023-05-06T03:40:23.272Z,242.16
2023-05-06T03:41:23.214Z,242.23
2023-05-06T03:42:23.218Z,241.12
2023-05-06T03:43:23.247Z,241.99
2023-05-06T03:44:23.250Z,241.28
2023-05-06T03:45:23.236Z,241.66
2023-05-06T03:46:23.336Z,240.32
2023-05-06T03:47:23.355Z,239.04
2023-05-06T03:48:23.261Z,240.92
2023-05-06T03:49:23.241Z,239.61
2023-05-06T03:50:23.239Z,240.53
2023-05-06T03:51:23.245Z,240.97
2023-05-06T03:52:23.252Z,239.24
2023-05-06T03:53:23.283Z,240.27
2023-05-06T03:54:23.306Z,239.12
2023-05-06T03:55:23.357Z,239.61
2023-05-06T03:56:23.408Z,239.74
2023-05-06T03:57:23.458Z,239.85
2023-05-06T03:58:23.528Z,239.07
2023-05-06T03:59:23.566Z,240.27
2023-05-06T04:00:23.617Z,239.49
2023-05-06T04:01:23.739Z,239.25
2023-05-06T04:02:23.793Z,238.47
2023-05-06T04:03:23.812Z,239.23
2023-05-06T04:04:23.812Z,237.87
2023-05-06T04:05:23.886Z,239.33
2023-05-06T04:06:23.920Z,239.03
2023-05-06T04:07:23.957Z,239.55
2023-05-06T04:08:24.059Z,239.13
2023-05-06T04:09:24.064Z,238.04
2023-05-06T04:10:24.108Z,237.97
2023-05-06T04:11:24.163Z,238.51
2023-05-06T04:12:24.275Z,239.19
2023-05-06T04:13:24.278Z,238.89
2023-05-06T04:14:24.329Z,239.38
2023-05-06T04:15:24.377Z,240.82
2023-05-06T04:16:24.489Z,239.52
2023-05-06T04:17:24.633Z,241.14
2023-05-06T04:18:24.531Z,236.94
2023-05-06T04:19:24.580Z,238.33
2023-05-06T04:20:24.629Z,238.97
2023-05-06T04:21:24.696Z,240.58
2023-05-06T04:22:24.744Z,240.58
2023-05-06T04:23:24.822Z,240.89
2023-05-06T04:24:24.858Z,238.36
2023-05-06T04:25:24.906Z,238.71
2023-05-06T04:26:24.975Z,238.82
2023-05-06T04:27:25.026Z,237.53
2023-05-06T04:28:25.135Z,238.44
2023-05-06T04:29:25.139Z,238.52
2023-05-06T04:30:25.225Z,237.20
2023-05-06T04:31:25.309Z,239.05
2023-05-06T04:32:25.365Z,240.06
2023-05-06T04:33:25.350Z,240.44
2023-05-06T04:34:25.392Z,236.88
2023-05-06T04:35:25.447Z,238.00
2023-05-06T04:36:25.506Z,237.54
2023-05-06T04:37:25.567Z,237.69
2023-05-06T04:38:25.632Z,239.09
2023-05-06T04:39:25.661Z,237.75
2023-05-06T04:40:25.720Z,240.55
2023-05-06T04:41:25.755Z,239.56
2023-05-06T04:42:25.864Z,237.59
2023-05-06T04:43:25.868Z,238.99
2023-05-06T04:44:26.116Z,237.30
2023-05-06T04:45:25.993Z,236.03
2023-05-06T04:46:26.023Z,236.69
2023-05-06T04:47:26.131Z,237.46
2023-05-06T04:48:26.144Z,236.78
2023-05-06T04:49:26.179Z,238.30
2023-05-06T04:50:26.213Z,237.46
2023-05-06T04:51:26.277Z,237.80
2023-05-06T04:52:26.316Z,237.12
2023-05-06T04:53:26.385Z,237.22
2023-05-06T04:54:26.428Z,238.72
2023-05-06T04:55:26.483Z,236.11
2023-05-06T04:56:26.532Z,237.66
2023-05-06T04:57:26.601Z,236.28
2023-05-06T04:58:26.659Z,237.28
2023-05-06T04:59:26.703Z,236.96
2023-05-06T05:00:26.811Z,236.98
2023-05-06T05:01:26.817Z,237.24
2023-05-06T05:02:26.972Z,237.64
2023-05-06T05:03:27.100Z,235.66
2023-05-06T05:04:26.951Z,237.56
2023-05-06T05:05:26.993Z,237.61
2023-05-06T05:06:27.052Z,236.67
2023-05-06T05:07:27.123Z,237.46
2023-05-06T05:08:27.157Z,236.84
2023-05-06T05:09:27.193Z,237.02
2023-05-06T05:10:27.253Z,237.20
2023-05-06T05:11:27.324Z,237.12
2023-05-06T05:12:27.334Z,237.86
2023-05-06T05:13:27.414Z,236.51
2023-05-06T05:14:27.450Z,235.75
2023-05-06T05:15:27.487Z,235.69
2023-05-06T05:16:27.587Z,236.47
2023-05-06T05:17:27.642Z,238.40
2023-05-06T05:18:27.651Z,238.46
2023-05-06T05:19:27.694Z,237.67
2023-05-06T05:20:27.737Z,236.89
2023-05-06T05:21:27.793Z,236.03
2023-05-06T05:22:27.839Z,236.13
2023-05-06T05:23:27.938Z,238.86
2023-05-06T05:24:27.957Z,237.44
2023-05-06T05:25:28.002Z,237.54
2023-05-06T05:26:28.052Z,236.51
2023-05-06T05:27:28.106Z,235.71
2023-05-06T05:28:28.173Z,236.06
2023-05-06T05:29:28.213Z,236.25
2023-05-06T05:30:28.292Z,236.34
2023-05-06T05:31:28.384Z,235.13
2023-05-06T05:32:28.493Z,235.47
2023-05-06T05:33:28.479Z,234.81
2023-05-06T05:34:28.473Z,237.38
2023-05-06T05:35:28.532Z,237.72
2023-05-06T05:36:28.594Z,235.49
2023-05-06T05:37:28.632Z,238.21
2023-05-06T05:38:28.724Z,235.94
2023-05-06T05:39:28.736Z,235.09
2023-05-06T05:40:28.782Z,236.00
2023-05-06T05:41:28.869Z,236.15
2023-05-06T05:42:28.892Z,235.53
2023-05-06T05:43:28.952Z,235.42
2023-05-06T05:44:29.016Z,235.36
2023-05-06T05:45:29.058Z,235.17
2023-05-06T05:46:29.147Z,235.29
2023-05-06T05:47:29.185Z,235.50
2023-05-06T05:48:29.229Z,236.96
2023-05-06T05:49:29.269Z,236.13
2023-05-06T05:50:29.319Z,234.53
2023-05-06T05:51:29.374Z,235.79
2023-05-06T05:52:29.416Z,236.04
2023-05-06T05:53:29.495Z,234.79
2023-05-06T05:54:29.538Z,233.77
2023-05-06T05:55:29.587Z,235.67
2023-05-06T05:56:29.627Z,234.51
2023-05-06T05:57:29.623Z,234.67
2023-05-06T05:58:29.635Z,234.93
2023-05-06T05:59:29.640Z,234.74
2023-05-06T06:00:29.634Z,234.63
2023-05-06T06:01:29.637Z,237.03
2023-05-06T06:02:29.666Z,237.52
2023-05-06T06:03:29.715Z,236.07
2023-05-06T06:04:29.681Z,235.55
2023-05-06T06:05:29.644Z,236.06
2023-05-06T06:06:29.661Z,233.76
2023-05-06T06:07:29.831Z,236.03
2023-05-06T06:08:29.723Z,234.46
2023-05-06T06:09:29.859Z,234.16
2023-05-06T06:10:29.749Z,236.15
2023-05-06T06:11:29.773Z,234.22
2023-05-06T06:12:29.831Z,233.45
2023-05-06T06:13:29.985Z,234.53
2023-05-06T06:14:29.935Z,233.35
2023-05-06T06:15:29.992Z,234.16
2023-05-06T06:16:30.097Z,234.34
2023-05-06T06:17:30.106Z,235.22
2023-05-06T06:18:30.144Z,232.21
2023-05-06T06:19:30.199Z,232.47
2023-05-06T06:20:30.318Z,232.04
2023-05-06T06:21:30.316Z,231.96
2023-05-06T06:22:30.358Z,233.58
2023-05-06T06:23:30.449Z,231.40
2023-05-06T06:24:30.449Z,231.14
2023-05-06T06:25:30.504Z,231.35
2023-05-06T06:26:30.558Z,230.88
2023-05-06T06:27:30.604Z,232.17
2023-05-06T06:28:30.639Z,232.54
2023-05-06T06:29:30.698Z,232.15
2023-05-06T06:30:30.757Z,228.79
2023-05-06T06:31:30.801Z,230.66
2023-05-06T06:32:30.867Z,230.70
2023-05-06T06:33:30.880Z,230.65
2023-05-06T06:34:30.914Z,231.05
2023-05-06T06:35:30.987Z,230.17
2023-05-06T06:36:31.010Z,230.23
2023-05-06T06:37:31.001Z,230.33
2023-05-06T06:38:31.024Z,230.41
2023-05-06T06:39:31.192Z,230.86
2023-05-06T06:40:31.006Z,231.28
2023-05-06T06:41:31.020Z,231.29
2023-05-06T06:42:31.056Z,231.41
2023-05-06T06:43:31.024Z,231.18
2023-05-06T06:44:31.016Z,230.63
2023-05-06T06:45:31.049Z,229.56
2023-05-06T06:46:31.019Z,231.35
2023-05-06T06:47:31.075Z,229.29
2023-05-06T06:48:31.024Z,229.42
2023-05-06T06:49:31.029Z,229.67
2023-05-06T06:50:31.028Z,229.39
2023-05-06T06:51:31.038Z,230.30
2023-05-06T06:52:31.077Z,228.68
2023-05-06T06:53:31.031Z,228.88
2023-05-06T06:54:31.027Z,229.41
2023-05-06T06:55:31.057Z,227.91
2023-05-06T06:56:31.069Z,229.29
2023-05-06T06:57:31.049Z,226.29
2023-05-06T06:58:31.048Z,225.98
2023-05-06T06:59:31.066Z,225.99
2023-05-06T07:00:31.049Z,226.16
2023-05-06T07:01:31.083Z,226.47
2023-05-06T07:02:31.122Z,224.50
2023-05-06T07:03:31.141Z,226.30
2023-05-06T07:04:31.209Z,226.00
2023-05-06T07:05:31.223Z,227.45
2023-05-06T07:06:31.278Z,228.25
2023-05-06T07:07:31.312Z,226.49
2023-05-06T07:08:31.586Z,229.09
2023-05-06T07:09:32.213Z,228.27
2023-05-06T07:10:31.455Z,227.13
2023-05-06T07:11:31.515Z,229.60
2023-05-06T07:12:31.543Z,228.05
2023-05-06T07:13:31.590Z,228.04
2023-05-06T07:14:31.647Z,226.93
2023-05-06T07:15:31.692Z,228.12
2023-05-06T07:16:31.815Z,228.70
2023-05-06T07:17:31.829Z,227.23
2023-05-06T07:18:31.855Z,228.86
2023-05-06T07:19:31.889Z,228.96
2023-05-06T07:20:31.934Z,228.29
2023-05-06T07:21:31.971Z,228.80
2023-05-06T07:22:32.014Z,229.59
2023-05-06T07:23:32.351Z,228.02
2023-05-06T07:24:32.232Z,228.24
2023-05-06T07:25:32.144Z,228.21
2023-05-06T07:26:32.191Z,231.05
2023-05-06T07:27:32.258Z,228.99
2023-05-06T07:28:32.308Z,229.09
2023-05-06T07:29:32.327Z,228.53
2023-05-06T07:30:32.382Z,227.70
2023-05-06T07:31:32.478Z,227.05
2023-05-06T07:32:32.485Z,227.92
2023-05-06T07:33:32.508Z,228.70
2023-05-06T07:34:32.541Z,228.55
2023-05-06T07:35:32.589Z,228.44
2023-05-06T07:36:32.645Z,227.12
2023-05-06T07:37:32.674Z,227.78
2023-05-06T07:38:32.878Z,227.93
2023-05-06T07:39:32.750Z,226.85
2023-05-06T07:40:32.883Z,226.76
2023-05-06T07:41:32.825Z,225.07
2023-05-06T07:42:32.870Z,226.10
2023-05-06T07:43:32.903Z,226.45
2023-05-06T07:44:32.929Z,222.30
2023-05-06T07:45:33.014Z,221.85
2023-05-06T07:46:33.144Z,219.80
2023-05-06T07:47:33.095Z,215.14
2023-05-06T07:48:33.126Z,216.74
2023-05-06T07:49:33.146Z,217.11
2023-05-06T07:50:33.177Z,216.57
2023-05-06T07:51:33.231Z,216.43
2023-05-06T07:52:33.245Z,213.59
2023-05-06T07:53:33.286Z,217.04
2023-05-06T07:54:33.319Z,212.52
2023-05-06T07:55:35.076Z,214.14
2023-05-06T07:56:33.394Z,214.42
2023-05-06T07:57:33.437Z,213.34
2023-05-06T07:58:33.499Z,214.63
2023-05-06T07:59:33.513Z,213.59
2023-05-06T08:00:33.540Z,211.25
2023-05-06T08:01:33.574Z,209.09
2023-05-06T08:02:33.698Z,206.78
2023-05-06T08:03:33.738Z,207.76
2023-05-06T08:04:33.749Z,211.20
2023-05-06T08:05:33.682Z,217.80
2023-05-06T08:06:33.695Z,216.31
2023-05-06T08:07:33.895Z,222.28
2023-05-06T08:08:33.757Z,223.69
2023-05-06T08:09:33.796Z,221.85
2023-05-06T08:10:33.819Z,224.86
2023-05-06T08:11:33.824Z,220.53
2023-05-06T08:12:33.959Z,226.46
2023-05-06T08:13:33.878Z,225.81
2023-05-06T08:14:33.896Z,225.48
2023-05-06T08:15:33.908Z,224.71
2023-05-06T08:16:33.968Z,227.83
2023-05-06T08:17:33.983Z,227.34
2023-05-06T08:18:33.982Z,228.05
2023-05-06T08:19:33.982Z,226.66
2023-05-06T08:20:34.009Z,227.47
2023-05-06T08:21:34.052Z,227.96
2023-05-06T08:22:34.062Z,228.23
2023-05-06T08:23:34.058Z,227.40
2023-05-06T08:24:34.100Z,225.21
2023-05-06T08:25:34.092Z,223.32
2023-05-06T08:26:34.108Z,226.32
2023-05-06T08:27:34.123Z,224.05
2023-05-06T08:28:34.228Z,223.63
2023-05-06T08:29:34.166Z,210.91
2023-05-06T08:30:34.170Z,218.69
2023-05-06T08:31:34.225Z,219.65
2023-05-06T08:32:34.213Z,213.21
2023-05-06T08:33:34.274Z,201.01
2023-05-06T08:34:34.220Z,186.16
2023-05-06T08:35:34.252Z,182.48
2023-05-06T08:36:34.358Z,181.18
2023-05-06T08:37:34.283Z,174.76
2023-05-06T08:38:34.338Z,171.90
2023-05-06T08:39:34.328Z,161.41
2023-05-06T08:40:34.329Z,155.81
2023-05-06T08:41:34.382Z,151.22
2023-05-06T08:42:34.388Z,147.74
2023-05-06T08:43:34.500Z,136.85
2023-05-06T08:44:34.499Z,139.59
2023-05-06T08:45:34.450Z,136.36
2023-05-06T08:46:34.433Z,136.58
2023-05-06T08:47:34.475Z,137.65
2023-05-06T08:48:34.465Z,133.22
2023-05-06T08:49:34.468Z,124.75
2023-05-06T08:50:34.478Z,123.78
2023-05-06T08:51:34.513Z,118.35
2023-05-06T08:52:34.522Z,121.31
2023-05-06T08:53:34.518Z,114.94
2023-05-06T08:54:34.517Z,111.05
2023-05-06T08:55:34.525Z,108.23
2023-05-06T08:56:34.553Z,99.15
2023-05-06T08:57:34.547Z,100.44
2023-05-06T08:58:34.559Z,103.27
2023-05-06T08:59:34.569Z,100.73
2023-05-06T09:00:34.631Z,93.75
2023-05-06T09:01:34.603Z,92.78
2023-05-06T09:02:34.674Z,87.71
2023-05-06T09:03:34.663Z,81.08
2023-05-06T09:04:34.595Z,88.68
2023-05-06T09:05:34.601Z,96.65
2023-05-06T09:06:34.635Z,96.76
2023-05-06T09:07:34.600Z,96.90
2023-05-06T09:08:34.619Z,92.77
2023-05-06T09:09:34.618Z,92.11
2023-05-06T09:10:34.644Z,93.07
2023-05-06T09:11:34.607Z,95.38
2023-05-06T09:12:34.634Z,90.86
2023-05-06T09:13:34.607Z,80.03
2023-05-06T09:14:34.613Z,84.11
2023-05-06T09:15:34.626Z,88.28
2023-05-06T09:16:34.664Z,71.85
2023-05-06T09:17:34.690Z,66.62
2023-05-06T09:18:34.669Z,66.70
2023-05-06T09:19:34.623Z,72.88
2023-05-06T09:20:34.634Z,69.51
2023-05-06T09:21:34.672Z,69.37
2023-05-06T09:22:34.639Z,69.07
2023-05-06T09:23:34.644Z,68.69
2023-05-06T09:24:34.644Z,63.80
2023-05-06T09:25:34.647Z,58.76
2023-05-06T09:26:34.673Z,54.53
2023-05-06T09:27:34.750Z,48.84
2023-05-06T09:28:34.788Z,37.82
2023-05-06T09:29:34.834Z,36.09
2023-05-06T09:30:34.875Z,34.86
2023-05-06T09:31:34.927Z,38.92
2023-05-06T09:32:36.218Z,50.39
2023-05-06T09:33:34.944Z,51.26
2023-05-06T09:34:34.961Z,63.80
2023-05-06T09:35:34.937Z,63.21
2023-05-06T09:36:34.935Z,68.97
2023-05-06T09:37:34.955Z,68.42
2023-05-06T09:38:34.961Z,60.27
2023-05-06T09:39:34.957Z,71.25
2023-05-06T09:40:34.962Z,76.40
2023-05-06T09:41:34.964Z,80.86
2023-05-06T09:42:34.966Z,81.81
2023-05-06T09:43:34.982Z,82.35
2023-05-06T09:44:34.981Z,89.34
2023-05-06T09:45:34.987Z,90.21
2023-05-06T09:46:35.087Z,97.67
2023-05-06T09:47:35.172Z,96.95
2023-05-06T09:48:35.057Z,99.36
2023-05-06T09:49:34.989Z,108.71
2023-05-06T09:50:34.996Z,103.44
2023-05-06T09:51:34.992Z,115.51
2023-05-06T09:52:35.022Z,116.34
2023-05-06T09:53:35.085Z,117.59
2023-05-06T09:54:35.026Z,121.93
2023-05-06T09:55:35.014Z,121.91
2023-05-06T09:56:35.026Z,128.99
2023-05-06T09:57:35.091Z,128.76
2023-05-06T09:58:35.041Z,137.69
2023-05-06T09:59:35.024Z,132.11
2023-05-06T10:00:35.044Z,130.56
2023-05-06T10:01:37.129Z,138.21
2023-05-06T10:02:35.152Z,141.40
2023-05-06T10:03:35.164Z,145.36
2023-05-06T10:04:35.406Z,152.04
2023-05-06T10:05:35.034Z,148.97
2023-05-06T10:06:35.037Z,155.50
2023-05-06T10:07:35.042Z,151.73
2023-05-06T10:08:35.059Z,152.58
2023-05-06T10:09:35.045Z,160.40
2023-05-06T10:10:35.065Z,158.50
2023-05-06T10:11:35.049Z,157.68
2023-05-06T10:12:35.096Z,158.69
2023-05-06T10:13:35.047Z,160.39
2023-05-06T10:14:35.049Z,161.88
2023-05-06T10:15:35.079Z,157.58
2023-05-06T10:16:35.126Z,158.98
2023-05-06T10:17:35.099Z,159.40
2023-05-06T10:18:35.098Z,160.81
2023-05-06T10:19:35.093Z,163.46
2023-05-06T10:20:35.205Z,168.63
2023-05-06T10:21:35.099Z,169.23
2023-05-06T10:22:35.106Z,173.47
2023-05-06T10:23:35.129Z,173.43
2023-05-06T10:24:35.116Z,159.77
2023-05-06T10:25:35.146Z,161.64
2023-05-06T10:26:35.147Z,164.84
2023-05-06T10:27:35.154Z,161.70
2023-05-06T10:28:35.148Z,169.41
2023-05-06T10:29:35.159Z,167.36
2023-05-06T10:30:35.176Z,165.48
2023-05-06T10:31:35.197Z,172.75
2023-05-06T10:32:35.189Z,167.19
2023-05-06T10:33:35.182Z,161.63
2023-05-06T10:34:35.184Z,160.84
2023-05-06T10:35:35.185Z,154.64
2023-05-06T10:36:35.253Z,155.15
2023-05-06T10:37:35.196Z,152.80
2023-05-06T10:38:35.242Z,159.49
2023-05-06T10:39:35.209Z,158.86
2023-05-06T10:40:35.215Z,153.31
2023-05-06T10:41:35.212Z,153.49
2023-05-06T10:42:35.217Z,150.58
2023-05-06T10:43:35.225Z,157.99
2023-05-06T10:44:35.233Z,150.46
2023-05-06T10:45:35.229Z,155.86
2023-05-06T10:46:35.235Z,148.76
2023-05-06T10:47:35.311Z,158.03
2023-05-06T10:48:35.253Z,156.72
2023-05-06T10:49:35.238Z,150.98
2023-05-06T10:50:35.256Z,151.66
2023-05-06T10:51:35.270Z,150.99
2023-05-06T10:52:35.387Z,153.00
2023-05-06T10:53:35.281Z,148.58
2023-05-06T10:54:35.266Z,149.97
2023-05-06T10:55:35.269Z,149.44
2023-05-06T10:56:35.298Z,153.14
2023-05-06T10:57:35.280Z,150.28
2023-05-06T10:58:35.287Z,153.42
2023-05-06T10:59:35.294Z,149.33
2023-05-06T11:00:35.290Z,154.59
2023-05-06T11:01:35.354Z,150.23
2023-05-06T11:02:35.352Z,148.54
2023-05-06T11:03:35.420Z,152.92
2023-05-06T11:04:35.321Z,153.45
2023-05-06T11:05:35.338Z,151.54
2023-05-06T11:06:35.344Z,151.95
2023-05-06T11:07:35.330Z,157.36
2023-05-06T11:08:35.336Z,159.52
2023-05-06T11:09:35.324Z,149.99
2023-05-06T11:10:35.339Z,164.74
2023-05-06T11:11:35.348Z,165.84
2023-05-06T11:12:35.358Z,166.43
2023-05-06T11:13:35.347Z,171.55
2023-05-06T11:14:35.362Z,171.71
2023-05-06T11:15:35.347Z,172.23
2023-05-06T11:16:36.579Z,178.70
2023-05-06T11:17:35.365Z,184.99
2023-05-06T11:18:35.357Z,183.60
2023-05-06T11:19:35.363Z,188.00
2023-05-06T11:20:35.355Z,180.69
2023-05-06T11:21:35.353Z,185.36
2023-05-06T11:22:35.348Z,189.90
2023-05-06T11:23:35.384Z,187.55
2023-05-06T11:24:35.439Z,186.73
2023-05-06T11:25:35.369Z,195.11
2023-05-06T11:26:35.378Z,190.27
2023-05-06T11:27:35.375Z,192.78
2023-05-06T11:28:35.388Z,199.21
2023-05-06T11:29:35.390Z,200.87
2023-05-06T11:30:35.577Z,197.16
2023-05-06T11:31:35.465Z,201.25
2023-05-06T11:32:35.460Z,203.90
2023-05-06T11:33:35.430Z,205.78
2023-05-06T11:34:35.485Z,199.17
2023-05-06T11:35:35.429Z,208.34
2023-05-06T11:36:35.462Z,201.55
2023-05-06T11:37:35.502Z,193.06
2023-05-06T11:38:35.457Z,198.32
2023-05-06T11:39:40.584Z,198.09
2023-05-06T11:40:36.535Z,198.52
2023-05-06T11:41:35.465Z,199.53
2023-05-06T11:42:35.470Z,200.05
2023-05-06T11:43:35.476Z,201.23
2023-05-06T11:44:35.498Z,199.02
2023-05-06T11:45:35.505Z,200.29
2023-05-06T11:46:35.586Z,195.52
2023-05-06T11:47:35.614Z,200.39
2023-05-06T11:48:35.543Z,202.34
2023-05-06T11:49:36.892Z,205.87
2023-05-06T11:50:35.681Z,198.06
2023-05-06T11:51:35.755Z,196.42
2023-05-06T11:52:35.825Z,193.76
2023-05-06T11:53:35.865Z,189.42
2023-05-06T11:54:35.955Z,190.57
2023-05-06T11:55:36.006Z,199.73
2023-05-06T11:56:36.145Z,197.30
2023-05-06T11:57:36.139Z,204.17
2023-05-06T11:58:36.203Z,208.47
2023-05-06T11:59:36.416Z,201.56
2023-05-06T12:00:36.345Z,208.12
2023-05-06T12:01:36.422Z,203.52
2023-05-06T12:02:36.556Z,199.12
2023-05-06T12:03:36.772Z,205.03
2023-05-06T12:04:36.657Z,205.13
2023-05-06T12:05:36.701Z,200.38
2023-05-06T12:06:36.796Z,202.93
2023-05-06T12:07:36.857Z,199.74
2023-05-06T12:08:36.952Z,195.68
2023-05-06T12:09:37.111Z,199.28
2023-05-06T12:10:37.076Z,195.68
2023-05-06T12:11:37.161Z,192.30
2023-05-06T12:12:37.306Z,188.70
2023-05-06T12:13:37.414Z,186.81
2023-05-06T12:14:37.399Z,185.57
2023-05-06T12:15:37.451Z,182.77
2023-05-06T12:16:37.550Z,182.12
2023-05-06T12:17:37.587Z,183.04
2023-05-06T12:18:37.601Z,172.90
2023-05-06T12:19:37.683Z,170.50
2023-05-06T12:20:37.689Z,170.50
2023-05-06T12:21:37.707Z,164.56
2023-05-06T12:22:37.677Z,165.23
2023-05-06T12:23:37.708Z,154.81
2023-05-06T12:24:37.679Z,158.23
2023-05-06T12:25:37.689Z,161.79
2023-05-06T12:26:37.702Z,156.40
2023-05-06T12:27:37.716Z,164.43
2023-05-06T12:28:37.789Z,162.50
2023-05-06T12:29:37.907Z,149.67
2023-05-06T12:30:37.821Z,154.08